Chilcoot, CA (96105)

5:22 AM PDT on September 18, 2014 (GMT -0700)
Main Street Loyalton | Change Station
CLOSE
Current Station
Personal Weather Station
Location: Loyalton, CA
Elevation: 4964 ft
Nearby Weather Stations

Elev 4964 ft 39.68 °N, 120.24 °W | Updated 1 second ago

Mostly Cloudy
Mostly Cloudy
50.0 °F
Feels Like 50.0 °F
N
0.0
Wind Variable Wind from NNE
Gusts 0.0 mph

Today
High -- | Low -- °F
--% Chance of Precip.
Yesterday
High -- | Low -- °F
Precip. -- in
6:44 AM 7:04 PM
Waning Crescent, 27% visible
Pressure 29.92 in
Visibility 7.0 miles
Clouds Clear
Dew Point 43 °F
Humidity 76%
Rainfall 0.00 in
Snow Depth 1 in , 0 in , 0 in
UV 0 out of 12
Pollen 6.90 out of 12
Air Quality Not available.
Flu Activity Not available.
METAR KRTS 181215Z AUTO 31005KT 7SM CLR 17/05 A2992 RMK AO2

More Conditions Fewer Conditions

Pressure 29.92 in
Visibility 7.0 miles
Clouds Clear
Dew Point 43 °F
Humidity 76%
Rainfall 0.00 in
Snow Depth 1 in , 0 in , 0 in
UV 0 out of 12
Pollen 6.90 out of 12
Air Quality Not available.
Flu Activity Not available.
METAR KRTS 181215Z AUTO 31005KT 7SM CLR 17/05 A2992 RMK AO2

More Conditions Fewer Conditions

10-Day Weather Forecast

Almanac

Astronomy

Sep. 18, 2014 Rise Set
Actual Time 6:44 AM PDT 7:04 PM PDT
Civil Twilight 6:17 AM PDT 7:31 PM PDT
Nautical Twilight 5:45 AM PDT 8:03 PM PDT
Astronomical Twilight 5:13 AM PDT 8:35 PM PDT
Moon 1:41 AM PDT 3:58 PM PDT
Length of Visible Light 13h 13m
Length of Day
12h 19m
Tomorrow will be 2m 36s shorter.
Waning Crescent, 27% of the Moon is Illuminated
Today
Waning Crescent
Sep 24
New
Oct 1
First Quarter
Oct 8
Full
Oct 15
Last Quarter

Today's Extremes

State Highs State Lows

Community

WunderPhotos

Upload Photos

1,754,333 photos uploaded!

Nearby

Snow Depth

Station Depth Elevation
Adin Mountain 1 in 6200 ft
Independence Camp 0 in 7000 ft
Forestdale Creek 0 in 8029 ft
Crowder Flat 0 in 5100 ft
CSS Lab 1 in 6900 ft

Earthquake Activity

City Distance Mag. Time & Date
No recent earthquake activity has been reported nearby.
Minimum magnitude displayed is 2.5.

Coastal Water Temperatures

Place Temperature
No Stations Reporting

Nearby Weather Stations